sensor_id;sensor_type;location;lat;lon;timestamp;P1;durP1;ratioP1;P2;durP2;ratioP2
14381;SDS011;7275;50.328;8.720;2023-03-29T00:00:12;1.30;;;1.20;;
14381;SDS011;7275;50.328;8.720;2023-03-29T00:02:41;1.53;;;1.30;;
14381;SDS011;7275;50.328;8.720;2023-03-29T00:05:14;1.50;;;1.30;;
14381;SDS011;7275;50.328;8.720;2023-03-29T00:07:43;1.93;;;1.50;;
14381;SDS011;7275;50.328;8.720;2023-03-29T00:10:11;1.40;;;1.30;;
14381;SDS011;7275;50.328;8.720;2023-03-29T00:12:39;1.53;;;1.20;;
14381;SDS011;7275;50.328;8.720;2023-03-29T00:15:08;2.13;;;1.50;;
14381;SDS011;7275;50.328;8.720;2023-03-29T00:17:36;1.50;;;1.40;;
14381;SDS011;7275;50.328;8.720;2023-03-29T00:20:05;1.47;;;1.37;;
14381;SDS011;7275;50.328;8.720;2023-03-29T00:22:35;1.70;;;1.47;;
14381;SDS011;7275;50.328;8.720;2023-03-29T00:25:05;1.47;;;1.30;;
14381;SDS011;7275;50.328;8.720;2023-03-29T00:27:33;1.73;;;1.27;;
14381;SDS011;7275;50.328;8.720;2023-03-29T00:30:00;1.63;;;1.13;;
14381;SDS011;7275;50.328;8.720;2023-03-29T00:32:30;1.63;;;1.40;;
14381;SDS011;7275;50.328;8.720;2023-03-29T00:34:59;1.57;;;1.30;;
14381;SDS011;7275;50.328;8.720;2023-03-29T00:37:27;1.60;;;1.40;;
14381;SDS011;7275;50.328;8.720;2023-03-29T00:39:55;1.97;;;1.53;;
14381;SDS011;7275;50.328;8.720;2023-03-29T00:42:23;1.40;;;1.30;;
14381;SDS011;7275;50.328;8.720;2023-03-29T00:44:55;1.50;;;1.17;;
14381;SDS011;7275;50.328;8.720;2023-03-29T00:47:28;2.47;;;1.50;;
14381;SDS011;7275;50.328;8.720;2023-03-29T00:50:00;1.70;;;1.37;;
14381;SDS011;7275;50.328;8.720;2023-03-29T00:52:31;1.50;;;1.40;;
14381;SDS011;7275;50.328;8.720;2023-03-29T00:55:01;1.60;;;1.50;;
14381;SDS011;7275;50.328;8.720;2023-03-29T00:57:35;1.63;;;1.40;;
14381;SDS011;7275;50.328;8.720;2023-03-29T01:00:05;1.60;;;1.33;;
14381;SDS011;7275;50.328;8.720;2023-03-29T01:02:36;1.47;;;1.37;;
14381;SDS011;7275;50.328;8.720;2023-03-29T01:05:06;1.73;;;1.37;;
14381;SDS011;7275;50.328;8.720;2023-03-29T01:07:40;2.03;;;1.33;;
14381;SDS011;7275;50.328;8.720;2023-03-29T01:10:14;2.17;;;1.57;;
14381;SDS011;7275;50.328;8.720;2023-03-29T01:12:45;2.67;;;1.50;;
14381;SDS011;7275;50.328;8.720;2023-03-29T01:15:17;1.40;;;1.30;;
14381;SDS011;7275;50.328;8.720;2023-03-29T01:17:47;1.40;;;1.20;;
14381;SDS011;7275;50.328;8.720;2023-03-29T01:20:20;1.60;;;1.50;;
14381;SDS011;7275;50.328;8.720;2023-03-29T01:22:53;1.70;;;1.40;;
14381;SDS011;7275;50.328;8.720;2023-03-29T01:25:32;2.40;;;1.40;;
14381;SDS011;7275;50.328;8.720;2023-03-29T01:28:08;2.30;;;1.57;;
14381;SDS011;7275;50.328;8.720;2023-03-29T01:30:41;1.83;;;1.50;;
14381;SDS011;7275;50.328;8.720;2023-03-29T01:33:15;1.97;;;1.50;;
14381;SDS011;7275;50.328;8.720;2023-03-29T01:35:50;1.37;;;1.23;;
14381;SDS011;7275;50.328;8.720;2023-03-29T01:38:27;2.03;;;1.37;;
14381;SDS011;7275;50.328;8.720;2023-03-29T01:41:01;1.50;;;1.20;;
14381;SDS011;7275;50.328;8.720;2023-03-29T01:43:32;1.83;;;1.40;;
14381;SDS011;7275;50.328;8.720;2023-03-29T01:46:05;2.30;;;1.40;;
14381;SDS011;7275;50.328;8.720;2023-03-29T01:48:39;1.87;;;1.40;;
14381;SDS011;7275;50.328;8.720;2023-03-29T01:51:14;2.20;;;1.47;;
14381;SDS011;7275;50.328;8.720;2023-03-29T01:53:45;1.50;;;1.30;;
14381;SDS011;7275;50.328;8.720;2023-03-29T01:56:19;1.43;;;1.20;;
14381;SDS011;7275;50.328;8.720;2023-03-29T01:58:51;1.40;;;1.30;;
14381;SDS011;7275;50.328;8.720;2023-03-29T02:01:22;1.90;;;1.30;;
14381;SDS011;7275;50.328;8.720;2023-03-29T02:03:56;1.80;;;1.27;;
14381;SDS011;7275;50.328;8.720;2023-03-29T02:06:28;2.53;;;1.40;;
14381;SDS011;7275;50.328;8.720;2023-03-29T02:08:58;1.80;;;1.30;;
14381;SDS011;7275;50.328;8.720;2023-03-29T02:11:26;2.40;;;1.20;;
14381;SDS011;7275;50.328;8.720;2023-03-29T02:13:56;1.30;;;1.20;;
14381;SDS011;7275;50.328;8.720;2023-03-29T02:16:23;2.20;;;1.23;;
14381;SDS011;7275;50.328;8.720;2023-03-29T02:18:52;1.40;;;1.30;;
14381;SDS011;7275;50.328;8.720;2023-03-29T02:21:23;1.73;;;1.20;;
14381;SDS011;7275;50.328;8.720;2023-03-29T02:23:56;2.07;;;1.33;;
14381;SDS011;7275;50.328;8.720;2023-03-29T02:26:27;1.40;;;1.30;;
14381;SDS011;7275;50.328;8.720;2023-03-29T02:28:56;1.50;;;1.20;;
14381;SDS011;7275;50.328;8.720;2023-03-29T02:31:24;1.77;;;1.20;;
14381;SDS011;7275;50.328;8.720;2023-03-29T02:34:00;1.23;;;1.13;;
14381;SDS011;7275;50.328;8.720;2023-03-29T02:36:33;1.30;;;1.20;;
14381;SDS011;7275;50.328;8.720;2023-03-29T02:39:06;1.47;;;1.27;;
14381;SDS011;7275;50.328;8.720;2023-03-29T02:41:38;2.03;;;1.40;;
14381;SDS011;7275;50.328;8.720;2023-03-29T02:44:11;1.30;;;1.10;;
14381;SDS011;7275;50.328;8.720;2023-03-29T02:46:41;1.80;;;1.20;;
14381;SDS011;7275;50.328;8.720;2023-03-29T02:49:09;2.33;;;1.20;;
14381;SDS011;7275;50.328;8.720;2023-03-29T02:51:37;1.80;;;1.30;;
14381;SDS011;7275;50.328;8.720;2023-03-29T02:54:05;1.40;;;1.30;;
14381;SDS011;7275;50.328;8.720;2023-03-29T02:56:41;1.57;;;1.33;;
14381;SDS011;7275;50.328;8.720;2023-03-29T02:59:11;3.40;;;1.40;;
14381;SDS011;7275;50.328;8.720;2023-03-29T03:01:39;1.50;;;1.40;;
14381;SDS011;7275;50.328;8.720;2023-03-29T03:04:07;1.30;;;1.20;;
14381;SDS011;7275;50.328;8.720;2023-03-29T03:06:36;1.60;;;1.40;;
14381;SDS011;7275;50.328;8.720;2023-03-29T03:09:04;1.67;;;1.37;;
14381;SDS011;7275;50.328;8.720;2023-03-29T03:11:33;1.73;;;1.50;;
14381;SDS011;7275;50.328;8.720;2023-03-29T03:14:00;1.80;;;1.60;;
14381;SDS011;7275;50.328;8.720;2023-03-29T03:16:29;1.30;;;1.20;;
14381;SDS011;7275;50.328;8.720;2023-03-29T03:18:57;1.57;;;1.47;;
14381;SDS011;7275;50.328;8.720;2023-03-29T03:21:26;1.70;;;1.60;;
14381;SDS011;7275;50.328;8.720;2023-03-29T03:23:54;2.93;;;1.50;;
14381;SDS011;7275;50.328;8.720;2023-03-29T03:26:22;1.70;;;1.40;;
14381;SDS011;7275;50.328;8.720;2023-03-29T03:28:55;2.60;;;1.50;;
14381;SDS011;7275;50.328;8.720;2023-03-29T03:31:23;1.67;;;1.40;;
14381;SDS011;7275;50.328;8.720;2023-03-29T03:33:52;2.60;;;1.50;;
14381;SDS011;7275;50.328;8.720;2023-03-29T03:36:20;1.77;;;1.67;;
14381;SDS011;7275;50.328;8.720;2023-03-29T03:38:51;1.90;;;1.67;;
14381;SDS011;7275;50.328;8.720;2023-03-29T03:41:19;2.90;;;1.50;;
14381;SDS011;7275;50.328;8.720;2023-03-29T03:43:46;2.43;;;1.60;;
14381;SDS011;7275;50.328;8.720;2023-03-29T03:46:14;2.70;;;1.50;;
14381;SDS011;7275;50.328;8.720;2023-03-29T03:48:42;1.83;;;1.50;;
14381;SDS011;7275;50.328;8.720;2023-03-29T03:51:13;2.40;;;1.70;;
14381;SDS011;7275;50.328;8.720;2023-03-29T03:53:41;1.87;;;1.50;;
14381;SDS011;7275;50.328;8.720;2023-03-29T03:56:09;2.03;;;1.50;;
14381;SDS011;7275;50.328;8.720;2023-03-29T03:58:38;2.10;;;1.70;;
14381;SDS011;7275;50.328;8.720;2023-03-29T04:01:06;1.57;;;1.40;;
14381;SDS011;7275;50.328;8.720;2023-03-29T04:03:35;3.63;;;1.70;;
14381;SDS011;7275;50.328;8.720;2023-03-29T04:06:04;1.73;;;1.60;;
14381;SDS011;7275;50.328;8.720;2023-03-29T04:08:33;1.90;;;1.60;;
14381;SDS011;7275;50.328;8.720;2023-03-29T04:11:01;2.20;;;1.70;;
14381;SDS011;7275;50.328;8.720;2023-03-29T04:13:29;2.30;;;1.60;;
14381;SDS011;7275;50.328;8.720;2023-03-29T04:15:57;1.67;;;1.57;;
14381;SDS011;7275;50.328;8.720;2023-03-29T04:18:27;1.77;;;1.60;;
14381;SDS011;7275;50.328;8.720;2023-03-29T04:20:54;2.50;;;1.80;;
14381;SDS011;7275;50.328;8.720;2023-03-29T04:23:22;2.13;;;1.80;;
14381;SDS011;7275;50.328;8.720;2023-03-29T04:25:53;2.73;;;1.67;;
14381;SDS011;7275;50.328;8.720;2023-03-29T04:28:22;3.03;;;1.70;;
14381;SDS011;7275;50.328;8.720;2023-03-29T04:30:49;2.70;;;1.60;;
14381;SDS011;7275;50.328;8.720;2023-03-29T04:33:17;1.97;;;1.63;;
14381;SDS011;7275;50.328;8.720;2023-03-29T04:35:45;2.17;;;1.50;;
14381;SDS011;7275;50.328;8.720;2023-03-29T04:38:12;2.20;;;1.70;;
14381;SDS011;7275;50.328;8.720;2023-03-29T04:40:41;1.73;;;1.50;;
14381;SDS011;7275;50.328;8.720;2023-03-29T04:43:11;2.20;;;1.67;;
14381;SDS011;7275;50.328;8.720;2023-03-29T04:45:39;1.97;;;1.60;;
14381;SDS011;7275;50.328;8.720;2023-03-29T04:48:07;2.10;;;1.80;;
14381;SDS011;7275;50.328;8.720;2023-03-29T04:50:35;1.90;;;1.70;;
14381;SDS011;7275;50.328;8.720;2023-03-29T04:53:03;2.10;;;1.70;;
14381;SDS011;7275;50.328;8.720;2023-03-29T04:55:31;2.10;;;1.67;;
14381;SDS011;7275;50.328;8.720;2023-03-29T04:57:58;1.90;;;1.70;;
14381;SDS011;7275;50.328;8.720;2023-03-29T05:00:27;1.87;;;1.53;;
14381;SDS011;7275;50.328;8.720;2023-03-29T05:02:56;2.77;;;1.80;;
14381;SDS011;7275;50.328;8.720;2023-03-29T05:05:24;1.77;;;1.67;;
14381;SDS011;7275;50.328;8.720;2023-03-29T05:07:53;2.33;;;1.50;;
14381;SDS011;7275;50.328;8.720;2023-03-29T05:10:22;1.90;;;1.67;;
14381;SDS011;7275;50.328;8.720;2023-03-29T05:12:49;1.60;;;1.50;;
14381;SDS011;7275;50.328;8.720;2023-03-29T05:15:19;1.53;;;1.40;;
14381;SDS011;7275;50.328;8.720;2023-03-29T05:17:49;2.00;;;1.60;;
14381;SDS011;7275;50.328;8.720;2023-03-29T05:20:16;2.20;;;1.63;;
14381;SDS011;7275;50.328;8.720;2023-03-29T05:22:44;1.77;;;1.63;;
14381;SDS011;7275;50.328;8.720;2023-03-29T05:25:12;2.07;;;1.70;;
14381;SDS011;7275;50.328;8.720;2023-03-29T05:27:39;2.00;;;1.80;;
14381;SDS011;7275;50.328;8.720;2023-03-29T05:30:08;2.10;;;1.90;;
14381;SDS011;7275;50.328;8.720;2023-03-29T05:32:36;3.05;;;2.38;;
14381;SDS011;7275;50.328;8.720;2023-03-29T05:35:06;2.60;;;1.87;;
14381;SDS011;7275;50.328;8.720;2023-03-29T05:37:34;3.07;;;1.83;;
14381;SDS011;7275;50.328;8.720;2023-03-29T05:40:02;4.70;;;2.10;;
14381;SDS011;7275;50.328;8.720;2023-03-29T05:42:35;2.70;;;2.00;;
14381;SDS011;7275;50.328;8.720;2023-03-29T05:45:04;2.77;;;2.00;;
14381;SDS011;7275;50.328;8.720;2023-03-29T05:47:32;3.30;;;1.93;;
14381;SDS011;7275;50.328;8.720;2023-03-29T05:50:00;2.60;;;1.93;;
14381;SDS011;7275;50.328;8.720;2023-03-29T05:52:29;3.07;;;2.23;;
14381;SDS011;7275;50.328;8.720;2023-03-29T05:54:57;3.10;;;2.37;;
14381;SDS011;7275;50.328;8.720;2023-03-29T05:57:25;3.83;;;2.50;;
14381;SDS011;7275;50.328;8.720;2023-03-29T05:59:53;4.10;;;2.90;;
14381;SDS011;7275;50.328;8.720;2023-03-29T06:02:21;4.57;;;3.47;;
14381;SDS011;7275;50.328;8.720;2023-03-29T06:04:49;4.90;;;3.50;;
14381;SDS011;7275;50.328;8.720;2023-03-29T06:07:19;4.67;;;3.40;;
14381;SDS011;7275;50.328;8.720;2023-03-29T06:09:49;5.27;;;3.50;;
14381;SDS011;7275;50.328;8.720;2023-03-29T06:12:17;4.90;;;3.20;;
14381;SDS011;7275;50.328;8.720;2023-03-29T06:14:47;4.60;;;3.20;;
14381;SDS011;7275;50.328;8.720;2023-03-29T06:17:14;4.50;;;3.30;;
14381;SDS011;7275;50.328;8.720;2023-03-29T06:19:42;5.30;;;3.07;;
14381;SDS011;7275;50.328;8.720;2023-03-29T06:22:10;4.37;;;3.10;;
14381;SDS011;7275;50.328;8.720;2023-03-29T06:24:40;4.90;;;3.13;;
14381;SDS011;7275;50.328;8.720;2023-03-29T06:27:09;2.97;;;2.67;;
14381;SDS011;7275;50.328;8.720;2023-03-29T06:29:36;3.73;;;2.60;;
14381;SDS011;7275;50.328;8.720;2023-03-29T06:32:04;3.97;;;2.73;;
14381;SDS011;7275;50.328;8.720;2023-03-29T06:34:31;3.63;;;2.60;;
14381;SDS011;7275;50.328;8.720;2023-03-29T06:37:02;3.93;;;2.80;;
14381;SDS011;7275;50.328;8.720;2023-03-29T06:39:31;3.17;;;2.37;;
14381;SDS011;7275;50.328;8.720;2023-03-29T06:41:59;2.90;;;2.57;;
14381;SDS011;7275;50.328;8.720;2023-03-29T06:44:43;3.23;;;2.60;;
14381;SDS011;7275;50.328;8.720;2023-03-29T06:47:11;3.63;;;2.53;;
14381;SDS011;7275;50.328;8.720;2023-03-29T06:49:40;3.80;;;2.87;;
14381;SDS011;7275;50.328;8.720;2023-03-29T06:52:08;3.60;;;2.53;;
14381;SDS011;7275;50.328;8.720;2023-03-29T06:54:36;3.77;;;2.67;;
14381;SDS011;7275;50.328;8.720;2023-03-29T06:57:04;4.23;;;2.57;;
14381;SDS011;7275;50.328;8.720;2023-03-29T06:59:33;3.37;;;2.63;;
14381;SDS011;7275;50.328;8.720;2023-03-29T07:02:02;3.50;;;2.47;;
14381;SDS011;7275;50.328;8.720;2023-03-29T07:04:30;3.13;;;2.57;;
14381;SDS011;7275;50.328;8.720;2023-03-29T07:06:58;2.90;;;2.40;;
14381;SDS011;7275;50.328;8.720;2023-03-29T07:09:28;3.10;;;2.50;;
14381;SDS011;7275;50.328;8.720;2023-03-29T07:11:56;2.90;;;2.50;;
14381;SDS011;7275;50.328;8.720;2023-03-29T07:14:24;3.13;;;2.60;;
14381;SDS011;7275;50.328;8.720;2023-03-29T07:16:55;3.37;;;2.60;;
14381;SDS011;7275;50.328;8.720;2023-03-29T07:19:25;4.37;;;2.70;;
14381;SDS011;7275;50.328;8.720;2023-03-29T07:21:55;3.47;;;2.63;;
14381;SDS011;7275;50.328;8.720;2023-03-29T07:24:23;6.13;;;2.50;;
14381;SDS011;7275;50.328;8.720;2023-03-29T07:26:51;2.70;;;2.30;;
14381;SDS011;7275;50.328;8.720;2023-03-29T07:29:29;3.40;;;2.60;;
14381;SDS011;7275;50.328;8.720;2023-03-29T07:31:57;2.73;;;2.40;;
14381;SDS011;7275;50.328;8.720;2023-03-29T07:34:26;3.97;;;2.57;;
14381;SDS011;7275;50.328;8.720;2023-03-29T07:36:55;2.50;;;2.30;;
14381;SDS011;7275;50.328;8.720;2023-03-29T07:39:22;4.80;;;2.50;;
14381;SDS011;7275;50.328;8.720;2023-03-29T07:41:51;2.90;;;2.60;;
14381;SDS011;7275;50.328;8.720;2023-03-29T07:44:18;3.20;;;2.50;;
14381;SDS011;7275;50.328;8.720;2023-03-29T07:46:46;3.73;;;2.70;;
14381;SDS011;7275;50.328;8.720;2023-03-29T07:49:14;4.17;;;2.60;;
14381;SDS011;7275;50.328;8.720;2023-03-29T07:51:43;2.90;;;2.60;;
14381;SDS011;7275;50.328;8.720;2023-03-29T07:54:11;3.07;;;2.43;;
14381;SDS011;7275;50.328;8.720;2023-03-29T07:56:39;3.80;;;2.80;;
14381;SDS011;7275;50.328;8.720;2023-03-29T07:59:06;3.30;;;2.50;;
14381;SDS011;7275;50.328;8.720;2023-03-29T08:01:34;3.50;;;2.60;;
14381;SDS011;7275;50.328;8.720;2023-03-29T08:04:01;3.03;;;2.60;;
14381;SDS011;7275;50.328;8.720;2023-03-29T08:06:30;5.30;;;2.40;;
14381;SDS011;7275;50.328;8.720;2023-03-29T08:08:58;2.83;;;2.63;;
14381;SDS011;7275;50.328;8.720;2023-03-29T08:11:26;3.43;;;2.40;;
14381;SDS011;7275;50.328;8.720;2023-03-29T08:13:54;2.80;;;2.50;;
14381;SDS011;7275;50.328;8.720;2023-03-29T08:16:21;2.83;;;2.53;;
14381;SDS011;7275;50.328;8.720;2023-03-29T08:18:49;2.93;;;2.63;;
14381;SDS011;7275;50.328;8.720;2023-03-29T08:21:16;3.47;;;2.73;;
14381;SDS011;7275;50.328;8.720;2023-03-29T08:23:44;2.60;;;2.40;;
14381;SDS011;7275;50.328;8.720;2023-03-29T08:26:13;3.87;;;2.87;;
14381;SDS011;7275;50.328;8.720;2023-03-29T08:28:41;3.37;;;2.90;;
14381;SDS011;7275;50.328;8.720;2023-03-29T08:31:09;4.93;;;3.03;;
14381;SDS011;7275;50.328;8.720;2023-03-29T08:33:37;3.40;;;2.60;;
14381;SDS011;7275;50.328;8.720;2023-03-29T08:36:06;3.60;;;2.63;;
14381;SDS011;7275;50.328;8.720;2023-03-29T08:38:35;2.87;;;2.37;;
14381;SDS011;7275;50.328;8.720;2023-03-29T08:41:05;3.63;;;2.67;;
14381;SDS011;7275;50.328;8.720;2023-03-29T08:43:56;5.37;;;2.67;;
14381;SDS011;7275;50.328;8.720;2023-03-29T08:46:34;2.97;;;2.60;;
14381;SDS011;7275;50.328;8.720;2023-03-29T08:49:10;2.80;;;2.50;;
14381;SDS011;7275;50.328;8.720;2023-03-29T08:51:41;3.80;;;2.77;;
14381;SDS011;7275;50.328;8.720;2023-03-29T08:54:12;3.60;;;2.60;;
14381;SDS011;7275;50.328;8.720;2023-03-29T08:56:43;3.30;;;2.53;;
14381;SDS011;7275;50.328;8.720;2023-03-29T08:59:16;4.03;;;2.80;;
14381;SDS011;7275;50.328;8.720;2023-03-29T09:01:49;3.37;;;2.73;;
14381;SDS011;7275;50.328;8.720;2023-03-29T09:04:21;3.60;;;2.77;;
14381;SDS011;7275;50.328;8.720;2023-03-29T09:06:52;2.90;;;2.60;;
14381;SDS011;7275;50.328;8.720;2023-03-29T09:09:21;3.60;;;2.70;;
14381;SDS011;7275;50.328;8.720;2023-03-29T09:11:57;3.20;;;2.80;;
14381;SDS011;7275;50.328;8.720;2023-03-29T09:14:37;3.53;;;2.83;;
14381;SDS011;7275;50.328;8.720;2023-03-29T09:17:15;3.97;;;2.80;;
14381;SDS011;7275;50.328;8.720;2023-03-29T09:19:55;4.63;;;2.60;;
14381;SDS011;7275;50.328;8.720;2023-03-29T09:22:33;3.00;;;2.60;;
14381;SDS011;7275;50.328;8.720;2023-03-29T09:25:10;2.83;;;2.40;;
14381;SDS011;7275;50.328;8.720;2023-03-29T09:27:47;3.90;;;2.40;;
14381;SDS011;7275;50.328;8.720;2023-03-29T09:30:17;3.47;;;2.60;;
14381;SDS011;7275;50.328;8.720;2023-03-29T09:32:52;2.90;;;2.60;;
14381;SDS011;7275;50.328;8.720;2023-03-29T09:35:21;3.10;;;2.33;;
14381;SDS011;7275;50.328;8.720;2023-03-29T09:37:51;3.17;;;2.60;;
14381;SDS011;7275;50.328;8.720;2023-03-29T09:40:21;3.03;;;2.60;;
14381;SDS011;7275;50.328;8.720;2023-03-29T09:42:52;2.63;;;2.40;;
14381;SDS011;7275;50.328;8.720;2023-03-29T09:45:23;2.60;;;2.33;;
14381;SDS011;7275;50.328;8.720;2023-03-29T09:47:51;3.00;;;2.60;;
14381;SDS011;7275;50.328;8.720;2023-03-29T09:50:23;4.37;;;2.73;;
14381;SDS011;7275;50.328;8.720;2023-03-29T09:52:57;2.93;;;2.47;;
14381;SDS011;7275;50.328;8.720;2023-03-29T09:55:27;3.17;;;2.77;;
14381;SDS011;7275;50.328;8.720;2023-03-29T09:57:56;4.23;;;3.33;;
14381;SDS011;7275;50.328;8.720;2023-03-29T10:00:28;4.03;;;2.83;;
14381;SDS011;7275;50.328;8.720;2023-03-29T10:02:56;2.90;;;2.63;;
14381;SDS011;7275;50.328;8.720;2023-03-29T10:05:25;3.13;;;2.83;;
14381;SDS011;7275;50.328;8.720;2023-03-29T10:07:57;3.63;;;2.80;;
14381;SDS011;7275;50.328;8.720;2023-03-29T10:10:27;4.50;;;3.00;;
14381;SDS011;7275;50.328;8.720;2023-03-29T10:12:58;5.63;;;2.93;;
14381;SDS011;7275;50.328;8.720;2023-03-29T10:15:29;3.27;;;2.83;;
14381;SDS011;7275;50.328;8.720;2023-03-29T10:17:57;3.67;;;3.03;;
14381;SDS011;7275;50.328;8.720;2023-03-29T10:20:26;3.67;;;2.97;;
14381;SDS011;7275;50.328;8.720;2023-03-29T10:22:54;4.10;;;2.90;;
14381;SDS011;7275;50.328;8.720;2023-03-29T10:25:24;4.23;;;3.27;;
14381;SDS011;7275;50.328;8.720;2023-03-29T10:27:54;3.93;;;3.17;;
14381;SDS011;7275;50.328;8.720;2023-03-29T10:30:30;4.97;;;3.03;;
14381;SDS011;7275;50.328;8.720;2023-03-29T10:33:01;4.13;;;3.10;;
14381;SDS011;7275;50.328;8.720;2023-03-29T10:35:29;3.40;;;3.10;;
14381;SDS011;7275;50.328;8.720;2023-03-29T10:38:01;3.43;;;2.93;;
14381;SDS011;7275;50.328;8.720;2023-03-29T10:40:32;3.83;;;3.27;;
14381;SDS011;7275;50.328;8.720;2023-03-29T10:43:10;5.60;;;3.47;;
14381;SDS011;7275;50.328;8.720;2023-03-29T10:45:40;3.63;;;3.00;;
14381;SDS011;7275;50.328;8.720;2023-03-29T10:48:10;3.57;;;2.97;;
14381;SDS011;7275;50.328;8.720;2023-03-29T10:50:39;3.17;;;2.80;;
14381;SDS011;7275;50.328;8.720;2023-03-29T10:53:10;3.87;;;3.20;;
14381;SDS011;7275;50.328;8.720;2023-03-29T10:55:44;4.37;;;3.20;;
14381;SDS011;7275;50.328;8.720;2023-03-29T10:58:23;3.40;;;3.10;;
14381;SDS011;7275;50.328;8.720;2023-03-29T11:01:04;4.23;;;3.10;;
14381;SDS011;7275;50.328;8.720;2023-03-29T11:03:41;3.90;;;3.23;;
14381;SDS011;7275;50.328;8.720;2023-03-29T11:06:20;3.13;;;2.83;;
14381;SDS011;7275;50.328;8.720;2023-03-29T11:08:53;3.10;;;2.80;;
14381;SDS011;7275;50.328;8.720;2023-03-29T11:11:31;3.60;;;2.97;;
14381;SDS011;7275;50.328;8.720;2023-03-29T11:14:11;3.30;;;2.93;;
14381;SDS011;7275;50.328;8.720;2023-03-29T11:16:45;4.20;;;2.90;;
14381;SDS011;7275;50.328;8.720;2023-03-29T11:19:32;3.63;;;2.80;;
14381;SDS011;7275;50.328;8.720;2023-03-29T11:22:12;4.33;;;3.00;;
14381;SDS011;7275;50.328;8.720;2023-03-29T11:24:49;3.23;;;2.93;;
14381;SDS011;7275;50.328;8.720;2023-03-29T11:27:32;3.93;;;3.00;;
14381;SDS011;7275;50.328;8.720;2023-03-29T11:30:09;3.30;;;2.87;;
14381;SDS011;7275;50.328;8.720;2023-03-29T11:32:47;3.60;;;2.97;;
14381;SDS011;7275;50.328;8.720;2023-03-29T11:35:23;3.10;;;2.70;;
14381;SDS011;7275;50.328;8.720;2023-03-29T11:37:58;3.57;;;2.90;;
14381;SDS011;7275;50.328;8.720;2023-03-29T11:40:34;4.00;;;3.00;;
14381;SDS011;7275;50.328;8.720;2023-03-29T11:43:11;3.03;;;2.73;;
14381;SDS011;7275;50.328;8.720;2023-03-29T11:45:47;2.60;;;2.40;;
14381;SDS011;7275;50.328;8.720;2023-03-29T11:48:20;3.20;;;2.73;;
14381;SDS011;7275;50.328;8.720;2023-03-29T11:50:52;3.13;;;2.60;;
14381;SDS011;7275;50.328;8.720;2023-03-29T11:53:24;4.37;;;2.80;;
14381;SDS011;7275;50.328;8.720;2023-03-29T11:55:59;3.70;;;2.83;;
14381;SDS011;7275;50.328;8.720;2023-03-29T11:58:36;4.80;;;2.70;;
14381;SDS011;7275;50.328;8.720;2023-03-29T12:01:07;2.70;;;2.43;;
14381;SDS011;7275;50.328;8.720;2023-03-29T12:03:41;4.53;;;2.40;;
14381;SDS011;7275;50.328;8.720;2023-03-29T12:06:13;3.43;;;2.80;;
14381;SDS011;7275;50.328;8.720;2023-03-29T12:08:47;3.50;;;2.70;;
14381;SDS011;7275;50.328;8.720;2023-03-29T12:11:21;3.10;;;2.80;;
14381;SDS011;7275;50.328;8.720;2023-03-29T12:13:56;3.37;;;2.87;;
14381;SDS011;7275;50.328;8.720;2023-03-29T12:16:26;4.63;;;2.90;;
14381;SDS011;7275;50.328;8.720;2023-03-29T12:19:01;3.43;;;2.60;;
14381;SDS011;7275;50.328;8.720;2023-03-29T12:21:33;3.77;;;2.40;;
14381;SDS011;7275;50.328;8.720;2023-03-29T12:24:02;3.30;;;2.70;;
14381;SDS011;7275;50.328;8.720;2023-03-29T12:26:33;3.60;;;2.80;;
14381;SDS011;7275;50.328;8.720;2023-03-29T12:29:27;2.97;;;2.70;;
14381;SDS011;7275;50.328;8.720;2023-03-29T12:32:10;3.07;;;2.77;;
14381;SDS011;7275;50.328;8.720;2023-03-29T12:34:55;3.73;;;2.70;;
14381;SDS011;7275;50.328;8.720;2023-03-29T12:37:36;4.10;;;2.70;;
14381;SDS011;7275;50.328;8.720;2023-03-29T12:40:12;3.10;;;2.60;;
14381;SDS011;7275;50.328;8.720;2023-03-29T12:42:43;2.87;;;2.57;;
14381;SDS011;7275;50.328;8.720;2023-03-29T12:45:13;3.90;;;2.67;;
14381;SDS011;7275;50.328;8.720;2023-03-29T12:47:46;2.88;;;2.55;;
14381;SDS011;7275;50.328;8.720;2023-03-29T12:50:21;3.83;;;2.58;;
14381;SDS011;7275;50.328;8.720;2023-03-29T13:14:18;3.10;;;2.80;;
14381;SDS011;7275;50.328;8.720;2023-03-29T13:16:47;3.42;;;2.88;;
14381;SDS011;7275;50.328;8.720;2023-03-29T13:19:18;4.13;;;3.07;;
14381;SDS011;7275;50.328;8.720;2023-03-29T13:22:04;3.90;;;3.07;;
14381;SDS011;7275;50.328;8.720;2023-03-29T13:24:45;4.77;;;3.40;;
14381;SDS011;7275;50.328;8.720;2023-03-29T13:27:27;3.73;;;2.80;;
14381;SDS011;7275;50.328;8.720;2023-03-29T13:30:09;4.13;;;2.87;;
14381;SDS011;7275;50.328;8.720;2023-03-29T13:32:47;3.30;;;3.00;;
14381;SDS011;7275;50.328;8.720;2023-03-29T13:35:25;3.33;;;2.80;;
14381;SDS011;7275;50.328;8.720;2023-03-29T13:38:03;3.50;;;2.90;;
14381;SDS011;7275;50.328;8.720;2023-03-29T13:40:43;4.50;;;3.03;;
14381;SDS011;7275;50.328;8.720;2023-03-29T13:43:18;3.33;;;2.73;;
14381;SDS011;7275;50.328;8.720;2023-03-29T13:46:03;3.10;;;2.70;;
14381;SDS011;7275;50.328;8.720;2023-03-29T13:48:44;3.83;;;2.70;;
14381;SDS011;7275;50.328;8.720;2023-03-29T13:57:48;3.27;;;2.70;;
14381;SDS011;7275;50.328;8.720;2023-03-29T14:08:06;3.50;;;2.60;;
14381;SDS011;7275;50.328;8.720;2023-03-29T14:10:44;2.83;;;2.50;;
14381;SDS011;7275;50.328;8.720;2023-03-29T14:13:15;3.43;;;2.57;;
14381;SDS011;7275;50.328;8.720;2023-03-29T14:15:46;3.20;;;2.50;;
14381;SDS011;7275;50.328;8.720;2023-03-29T14:18:24;3.47;;;2.43;;
14381;SDS011;7275;50.328;8.720;2023-03-29T14:20:55;3.50;;;2.50;;
14381;SDS011;7275;50.328;8.720;2023-03-29T14:23:28;4.77;;;3.03;;
14381;SDS011;7275;50.328;8.720;2023-03-29T14:26:04;3.90;;;2.73;;
14381;SDS011;7275;50.328;8.720;2023-03-29T14:30:19;4.80;;;2.80;;
14381;SDS011;7275;50.328;8.720;2023-03-29T14:31:40;3.90;;;2.80;;
14381;SDS011;7275;50.328;8.720;2023-03-29T14:34:11;4.83;;;2.73;;
14381;SDS011;7275;50.328;8.720;2023-03-29T14:36:47;3.03;;;2.73;;
14381;SDS011;7275;50.328;8.720;2023-03-29T14:43:16;3.73;;;2.80;;
14381;SDS011;7275;50.328;8.720;2023-03-29T14:46:49;2.77;;;2.37;;
14381;SDS011;7275;50.328;8.720;2023-03-29T15:29:21;3.00;;;2.70;;
14381;SDS011;7275;50.328;8.720;2023-03-29T15:31:52;3.53;;;2.93;;
14381;SDS011;7275;50.328;8.720;2023-03-29T15:34:23;3.80;;;2.90;;
14381;SDS011;7275;50.328;8.720;2023-03-29T15:36:52;3.57;;;2.93;;
14381;SDS011;7275;50.328;8.720;2023-03-29T15:39:20;3.70;;;2.97;;
14381;SDS011;7275;50.328;8.720;2023-03-29T15:41:48;3.90;;;3.20;;
14381;SDS011;7275;50.328;8.720;2023-03-29T15:44:19;3.10;;;2.80;;
14381;SDS011;7275;50.328;8.720;2023-03-29T15:46:52;3.70;;;2.77;;
14381;SDS011;7275;50.328;8.720;2023-03-29T15:49:22;3.20;;;2.90;;
14381;SDS011;7275;50.328;8.720;2023-03-29T15:51:51;4.30;;;2.83;;
14381;SDS011;7275;50.328;8.720;2023-03-29T15:54:19;3.70;;;2.80;;
14381;SDS011;7275;50.328;8.720;2023-03-29T15:56:48;3.00;;;2.70;;
14381;SDS011;7275;50.328;8.720;2023-03-29T15:59:18;2.83;;;2.50;;
14381;SDS011;7275;50.328;8.720;2023-03-29T16:01:47;3.73;;;2.40;;
14381;SDS011;7275;50.328;8.720;2023-03-29T16:04:16;3.73;;;2.70;;
14381;SDS011;7275;50.328;8.720;2023-03-29T16:06:45;2.90;;;2.60;;
14381;SDS011;7275;50.328;8.720;2023-03-29T16:09:14;3.10;;;2.50;;
14381;SDS011;7275;50.328;8.720;2023-03-29T16:11:43;3.30;;;2.80;;
14381;SDS011;7275;50.328;8.720;2023-03-29T16:14:15;3.20;;;2.53;;
14381;SDS011;7275;50.328;8.720;2023-03-29T16:16:47;3.67;;;2.67;;
14381;SDS011;7275;50.328;8.720;2023-03-29T16:19:14;3.43;;;2.43;;
14381;SDS011;7275;50.328;8.720;2023-03-29T16:21:42;3.27;;;2.77;;
14381;SDS011;7275;50.328;8.720;2023-03-29T16:24:11;3.10;;;2.60;;
14381;SDS011;7275;50.328;8.720;2023-03-29T16:26:40;3.37;;;2.60;;
14381;SDS011;7275;50.328;8.720;2023-03-29T16:29:08;3.20;;;2.70;;
14381;SDS011;7275;50.328;8.720;2023-03-29T16:31:36;4.80;;;2.40;;
14381;SDS011;7275;50.328;8.720;2023-03-29T16:34:05;4.33;;;2.67;;
14381;SDS011;7275;50.328;8.720;2023-03-29T16:36:34;3.47;;;2.70;;
14381;SDS011;7275;50.328;8.720;2023-03-29T16:39:01;3.00;;;2.67;;
14381;SDS011;7275;50.328;8.720;2023-03-29T16:41:30;2.97;;;2.67;;
14381;SDS011;7275;50.328;8.720;2023-03-29T16:43:58;3.53;;;2.70;;